Time;durP1;ratioP1;P1;durP2;ratioP2;P2;SDS_P1;SDS_P2;PMS_P1;PMS_P2;Temp;Humidity;BMP_temperature;BMP_pressure;BME280_temperature;BME280_humidity;BME280_pressure;Samples;Min_cycle;Max_cycle;Signal;HPM_P1;HPM_P2
2022/11/06 00:00:20;;;;;;;9.27;8.48;;;8.30;92.80;;;;;;5042128;28;20435;-70
2022/11/06 00:02:47;;;;;;;8.87;7.60;;;8.30;92.80;;;;;;5038545;28;20436;-72
2022/11/06 00:07:58;;;;;;;9.65;8.07;;;8.30;92.90;;;;;;5044139;28;20937;-72
2022/11/06 00:10:25;;;;;;;8.25;7.40;;;8.30;92.80;;;;;;5035814;28;20431;-70
2022/11/06 00:12:51;;;;;;;7.88;7.18;;;8.30;92.80;;;;;;5041976;28;20440;-70
2022/11/06 00:15:20;;;;;;;7.93;6.57;;;8.30;92.70;;;;;;5043124;28;20452;-70
2022/11/06 00:17:48;;;;;;;7.50;6.70;;;8.20;92.80;;;;;;5040590;28;20426;-70
2022/11/06 00:20:17;;;;;;;8.02;7.15;;;8.20;92.80;;;;;;5044092;28;20445;-70
2022/11/06 00:22:46;;;;;;;7.40;6.70;;;8.30;92.70;;;;;;5044597;28;20425;-71
2022/11/06 00:25:13;;;;;;;7.50;6.80;;;8.30;92.80;;;;;;5041338;28;20454;-72
2022/11/06 00:27:46;;;;;;;7.13;6.35;;;8.30;92.70;;;;;;5040808;28;20495;-70
2022/11/06 00:30:13;;;;;;;7.60;6.90;;;8.30;92.80;;;;;;5039950;28;20910;-70
2022/11/06 00:32:43;;;;;;;8.50;6.80;;;8.30;92.90;;;;;;5044669;28;20429;-70
2022/11/06 00:35:09;;;;;;;7.20;6.50;;;8.30;92.70;;;;;;5036016;28;20980;-71
2022/11/06 00:37:36;;;;;;;7.88;6.47;;;8.30;92.70;;;;;;5040921;28;20465;-71
2022/11/06 00:40:04;;;;;;;7.13;6.43;;;8.20;92.70;;;;;;5045082;28;21126;-71
2022/11/06 00:42:31;;;;;;;6.75;6.05;;;8.20;92.70;;;;;;5047563;28;20421;-70
2022/11/06 00:44:58;;;;;;;7.80;6.47;;;8.20;92.60;;;;;;5047919;28;20436;-71
2022/11/06 00:47:25;;;;;;;7.50;6.80;;;8.20;92.60;;;;;;5042638;28;20438;-70
2022/11/06 00:49:56;;;;;;;7.07;6.30;;;8.20;92.70;;;;;;5043706;28;20484;-70
2022/11/06 00:52:28;;;;;;;8.38;6.40;;;8.20;92.80;;;;;;5031191;28;20433;-70
2022/11/06 00:54:55;;;;;;;6.65;5.95;;;8.10;92.80;;;;;;5042789;28;20441;-71
2022/11/06 00:57:22;;;;;;;7.93;5.97;;;8.10;93.00;;;;;;5040657;28;20405;-70
2022/11/06 00:59:49;;;;;;;10.43;7.18;;;8.10;93.00;;;;;;5045592;28;20440;-71
2022/11/06 01:02:18;;;;;;;10.00;6.80;;;8.10;93.20;;;;;;5043867;28;20441;-70
2022/11/06 01:04:45;;;;;;;9.48;6.50;;;8.10;93.30;;;;;;5046627;28;20429;-70
2022/11/06 01:07:14;;;;;;;7.30;6.60;;;8.10;93.40;;;;;;5047878;28;20445;-71
2022/11/06 01:09:40;;;;;;;6.82;5.97;;;8.10;93.40;;;;;;5053088;28;20434;-71
2022/11/06 01:12:07;;;;;;;7.45;5.95;;;8.10;93.50;;;;;;5062530;28;20424;-70
2022/11/06 01:14:34;;;;;;;7.03;6.00;;;8.10;93.50;;;;;;5052778;28;20436;-70
2022/11/06 01:17:01;;;;;;;8.93;6.63;;;8.10;93.50;;;;;;5048736;28;20531;-70
2022/11/06 01:19:28;;;;;;;7.28;5.40;;;8.10;93.40;;;;;;5035530;28;20448;-69
2022/11/06 01:21:54;;;;;;;6.93;5.55;;;8.10;93.40;;;;;;5038422;28;20417;-70
2022/11/06 01:24:25;;;;;;;8.00;6.22;;;8.00;93.40;;;;;;5044623;28;20433;-70
2022/11/06 01:26:52;;;;;;;9.10;6.38;;;8.00;93.60;;;;;;5040831;28;20499;-72
2022/11/06 01:29:20;;;;;;;6.00;5.32;;;8.00;93.70;;;;;;5048256;28;20787;-71
2022/11/06 01:31:49;;;;;;;6.10;5.30;;;8.00;93.70;;;;;;5038324;28;20435;-71
2022/11/06 01:34:17;;;;;;;7.53;5.90;;;8.00;93.70;;;;;;5041875;28;20465;-72
2022/11/06 01:36:45;;;;;;;7.85;6.10;;;8.00;93.70;;;;;;5048931;28;20555;-71
2022/11/06 01:39:13;;;;;;;7.72;5.78;;;8.00;93.60;;;;;;5046472;28;20453;-72
2022/11/06 01:41:44;;;;;;;5.80;5.20;;;8.00;93.70;;;;;;5036173;28;20415;-72
2022/11/06 01:44:50;;;;;;;7.43;5.40;;;8.00;93.70;;;;;;5034446;28;20434;-72
2022/11/06 01:47:21;;;;;;;6.32;4.75;;;7.90;93.70;;;;;;5044446;28;20431;-72
2022/11/06 01:49:48;;;;;;;6.20;5.22;;;8.00;93.80;;;;;;5048828;28;20930;-72
2022/11/06 01:52:17;;;;;;;6.70;5.15;;;7.90;93.70;;;;;;5042090;28;20439;-72
2022/11/06 01:54:48;;;;;;;5.72;5.13;;;7.90;93.80;;;;;;5040631;28;20466;-72
2022/11/06 01:57:16;;;;;;;5.78;4.93;;;7.90;93.70;;;;;;5034787;28;20427;-72
2022/11/06 01:59:45;;;;;;;5.22;4.72;;;7.90;93.70;;;;;;5045065;28;20440;-70
2022/11/06 02:02:15;;;;;;;6.88;4.97;;;7.90;93.70;;;;;;5046817;28;20794;-72
2022/11/06 02:04:43;;;;;;;5.82;4.80;;;7.90;93.70;;;;;;5041224;28;20441;-72
2022/11/06 02:07:11;;;;;;;4.88;4.38;;;7.90;94.10;;;;;;5044673;28;20526;-72
2022/11/06 02:09:38;;;;;;;7.45;5.53;;;7.90;93.70;;;;;;5043508;28;20495;-72
2022/11/06 02:12:21;;;;;;;6.17;4.97;;;7.90;93.60;;;;;;5044485;28;20418;-72
2022/11/06 02:14:58;;;;;;;7.72;5.28;;;7.80;93.70;;;;;;5042123;28;20436;-71
2022/11/06 02:17:44;;;;;;;6.20;4.60;;;7.80;93.70;;;;;;5047992;28;20930;-71
2022/11/06 02:20:20;;;;;;;6.97;4.88;;;7.80;93.70;;;;;;5048092;28;20432;-71
2022/11/06 02:23:08;;;;;;;5.50;5.00;;;7.80;93.80;;;;;;5038730;28;20437;-71
2022/11/06 02:25:46;;;;;;;7.13;4.65;;;7.80;93.80;;;;;;5044468;28;20441;-71
2022/11/06 02:28:20;;;;;;;5.90;4.57;;;7.80;93.90;;;;;;5065824;22;20406;-72
2022/11/06 02:30:48;;;;;;;6.03;4.60;;;7.80;93.90;;;;;;5030053;28;20453;-73
2022/11/06 02:33:18;;;;;;;7.70;5.22;;;7.80;93.80;;;;;;5043463;28;20922;-72
2022/11/06 02:35:49;;;;;;;6.30;4.20;;;7.80;93.70;;;;;;5040390;28;20531;-74
2022/11/06 02:38:20;;;;;;;4.85;4.32;;;7.80;93.60;;;;;;5039096;28;20454;-74
2022/11/06 02:40:50;;;;;;;6.15;4.22;;;7.80;93.60;;;;;;5025275;28;20450;-74
2022/11/06 02:43:20;;;;;;;6.50;4.30;;;7.80;93.70;;;;;;5022030;28;20438;-74
2022/11/06 02:45:50;;;;;;;6.60;4.07;;;7.80;93.50;;;;;;5023003;28;20434;-72
2022/11/06 02:48:21;;;;;;;5.13;4.20;;;7.80;93.60;;;;;;5019393;28;20545;-72
2022/11/06 02:50:50;;;;;;;8.27;4.82;;;7.80;93.60;;;;;;5024284;28;20881;-72
2022/11/06 02:53:22;;;;;;;7.30;4.43;;;7.80;93.60;;;;;;5024170;28;20471;-71
2022/11/06 02:55:50;;;;;;;5.25;3.97;;;7.80;93.60;;;;;;5025423;28;20755;-74
2022/11/06 02:58:23;;;;;;;5.63;4.00;;;7.80;93.50;;;;;;5024852;28;20503;-73
2022/11/06 03:00:54;;;;;;;4.97;4.05;;;7.80;93.50;;;;;;5024800;28;20453;-73
2022/11/06 03:03:26;;;;;;;6.30;4.65;;;7.80;93.60;;;;;;5024943;28;20422;-74
2022/11/06 03:05:57;;;;;;;6.43;4.00;;;7.80;93.60;;;;;;5022369;28;20457;-73
2022/11/06 03:08:30;;;;;;;6.88;4.05;;;7.80;93.70;;;;;;5023080;28;20544;-73
2022/11/06 03:11:05;;;;;;;5.50;3.88;;;7.70;93.60;;;;;;5024081;28;20472;-73
2022/11/06 03:13:44;;;;;;;4.10;3.70;;;7.70;93.70;;;;;;5023143;28;20498;-73
2022/11/06 03:16:21;;;;;;;6.93;4.18;;;7.70;93.80;;;;;;5024001;28;20827;-73
2022/11/06 03:18:56;;;;;;;6.65;3.90;;;7.70;93.80;;;;;;5025717;28;20456;-73
2022/11/06 03:21:29;;;;;;;6.63;3.78;;;7.70;93.70;;;;;;5022211;28;20501;-73
2022/11/06 03:24:01;;;;;;;5.47;3.80;;;7.70;93.80;;;;;;5020970;28;20443;-73
2022/11/06 03:26:33;;;;;;;4.82;3.60;;;7.70;93.70;;;;;;5025164;28;20937;-73
2022/11/06 03:29:10;;;;;;;5.50;3.78;;;7.70;93.60;;;;;;5023180;28;20436;-73
2022/11/06 03:31:40;;;;;;;5.35;3.70;;;7.70;93.50;;;;;;5021466;28;20431;-73
2022/11/06 03:34:12;;;;;;;5.10;3.80;;;7.70;93.40;;;;;;5027015;28;20443;-72
2022/11/06 03:36:44;;;;;;;4.70;3.60;;;7.70;93.50;;;;;;5023612;28;20476;-73
2022/11/06 03:39:15;;;;;;;5.90;3.42;;;7.70;93.50;;;;;;5023938;28;20801;-73
2022/11/06 03:41:47;;;;;;;5.55;3.80;;;7.70;93.50;;;;;;5024770;28;20442;-73
2022/11/06 03:44:18;;;;;;;4.53;3.50;;;7.70;93.50;;;;;;5022080;28;20438;-73
2022/11/06 03:46:48;;;;;;;5.60;3.38;;;7.70;93.60;;;;;;5024373;28;20453;-73
2022/11/06 03:49:21;;;;;;;5.40;3.60;;;7.70;93.60;;;;;;5019778;28;20431;-72
2022/11/06 03:51:51;;;;;;;6.18;4.10;;;7.70;93.60;;;;;;5020487;28;20441;-73
2022/11/06 03:54:21;;;;;;;4.03;3.63;;;7.70;93.70;;;;;;5021425;28;20434;-74
2022/11/06 03:56:54;;;;;;;6.15;3.40;;;7.70;93.80;;;;;;5021094;28;20437;-74
2022/11/06 03:59:24;;;;;;;6.28;3.80;;;7.70;93.90;;;;;;5023432;28;20468;-72
2022/11/06 04:01:54;;;;;;;4.77;3.03;;;7.70;93.90;;;;;;5023820;28;20509;-72
2022/11/06 04:04:25;;;;;;;4.32;3.40;;;7.70;94.00;;;;;;5024672;28;20502;-74
2022/11/06 04:06:56;;;;;;;5.10;3.38;;;7.70;94.10;;;;;;5020602;28;21009;-73
2022/11/06 04:15:03;;;;;;;4.20;3.30;;;7.70;94.00;;;;;;5019589;28;20443;-72
2022/11/06 04:17:31;;;;;;;5.20;3.38;;;7.70;93.90;;;;;;5020311;28;20423;-72
2022/11/06 04:20:04;;;;;;;4.95;3.30;;;7.70;93.80;;;;;;5023097;28;20426;-73
2022/11/06 04:22:44;;;;;;;4.40;3.10;;;7.70;93.80;;;;;;5020493;28;20545;-73
2022/11/06 04:28:23;;;;;;;5.35;3.20;;;7.70;93.80;;;;;;5024120;28;20726;-73
2022/11/06 04:31:00;;;;;;;4.90;3.22;;;7.70;93.80;;;;;;5018070;28;20443;-72
2022/11/06 04:33:34;;;;;;;4.38;3.00;;;7.70;93.90;;;;;;5020940;28;20457;-72
2022/11/06 04:36:11;;;;;;;5.05;2.88;;;7.70;93.90;;;;;;5028531;28;20445;-73
2022/11/06 04:38:47;;;;;;;4.53;2.95;;;7.70;93.90;;;;;;5024749;28;20438;-73
2022/11/06 04:41:21;;;;;;;6.70;3.35;;;7.70;93.80;;;;;;5020237;28;20437;-73
2022/11/06 04:43:51;;;;;;;4.78;2.75;;;7.70;93.70;;;;;;5026210;28;20519;-73
2022/11/06 04:46:23;;;;;;;5.63;3.15;;;7.70;93.50;;;;;;5028237;28;20462;-74
2022/11/06 04:48:51;;;;;;;4.25;2.60;;;7.70;93.40;;;;;;5027871;28;20518;-74
2022/11/06 04:51:21;;;;;;;4.80;3.00;;;7.70;93.40;;;;;;5033856;28;20434;-73
2022/11/06 04:53:49;;;;;;;5.93;3.20;;;7.70;93.50;;;;;;5031559;28;20500;-73
2022/11/06 04:56:22;;;;;;;3.43;2.67;;;7.70;93.50;;;;;;5022940;28;20529;-73
2022/11/06 04:58:49;;;;;;;4.00;2.90;;;7.70;93.60;;;;;;5024536;28;20438;-73
2022/11/06 05:01:16;;;;;;;5.40;2.90;;;7.70;93.60;;;;;;5026124;28;20499;-73
2022/11/06 05:03:44;;;;;;;6.30;2.90;;;7.70;93.70;;;;;;5027048;28;20797;-74
2022/11/06 05:06:11;;;;;;;3.97;2.58;;;7.70;93.70;;;;;;5026611;28;20447;-73
2022/11/06 05:08:38;;;;;;;4.35;2.80;;;7.70;93.60;;;;;;5025595;28;20458;-73
2022/11/06 05:11:05;;;;;;;3.60;2.70;;;7.70;93.50;;;;;;5021211;28;20436;-73
2022/11/06 05:13:32;;;;;;;5.20;2.80;;;7.70;93.40;;;;;;5026125;28;20939;-73
2022/11/06 05:15:59;;;;;;;5.25;3.10;;;7.70;93.20;;;;;;5026688;28;20431;-73
2022/11/06 05:18:27;;;;;;;5.95;2.70;;;7.70;93.30;;;;;;5027473;28;20430;-73
2022/11/06 05:23:40;;;;;;;4.80;2.90;;;7.70;93.40;;;;;;5021258;28;20461;-73
2022/11/06 05:26:07;;;;;;;4.87;3.30;;;7.70;93.60;;;;;;5026916;28;20443;-73
2022/11/06 05:28:34;;;;;;;5.53;3.30;;;7.70;93.70;;;;;;5024676;28;20472;-73
2022/11/06 05:31:01;;;;;;;6.43;3.00;;;7.60;93.70;;;;;;5025405;28;21450;-73
2022/11/06 05:33:28;;;;;;;3.90;2.63;;;7.70;93.50;;;;;;5026713;28;20496;-73
2022/11/06 05:35:56;;;;;;;2.80;2.50;;;7.70;93.20;;;;;;5024665;28;20903;-73
2022/11/06 05:38:22;;;;;;;3.80;2.80;;;7.70;93.10;;;;;;5033330;28;20518;-73
2022/11/06 05:40:49;;;;;;;5.20;3.10;;;7.70;93.10;;;;;;5026355;28;20447;-73
2022/11/06 05:43:16;;;;;;;4.28;2.80;;;7.70;93.00;;;;;;5025587;28;20445;-73
2022/11/06 05:45:43;;;;;;;3.90;2.30;;;7.70;92.90;;;;;;5024986;28;20828;-73
2022/11/06 05:48:10;;;;;;;5.13;2.72;;;7.70;92.90;;;;;;5024303;28;20423;-73
2022/11/06 05:50:37;;;;;;;4.22;2.70;;;7.70;92.90;;;;;;5020701;28;20463;-73
2022/11/06 05:53:05;;;;;;;5.68;3.10;;;7.70;93.00;;;;;;5024209;28;20515;-73
2022/11/06 05:55:32;;;;;;;4.82;2.70;;;7.70;92.90;;;;;;5026406;28;20439;-73
2022/11/06 05:57:58;;;;;;;4.85;2.63;;;7.70;92.90;;;;;;5022301;28;20452;-73
2022/11/06 06:00:25;;;;;;;4.10;2.70;;;7.70;92.90;;;;;;5022879;28;20432;-73
2022/11/06 06:02:52;;;;;;;4.10;2.45;;;7.70;93.00;;;;;;5025786;28;20893;-73
2022/11/06 06:05:19;;;;;;;3.90;2.70;;;7.70;93.00;;;;;;5025429;28;20415;-73
2022/11/06 06:07:46;;;;;;;3.78;2.90;;;7.70;93.10;;;;;;5020874;28;20477;-73
2022/11/06 06:10:14;;;;;;;4.28;2.80;;;7.70;93.00;;;;;;5022362;28;20458;-73
2022/11/06 06:12:41;;;;;;;5.43;2.67;;;7.80;93.00;;;;;;5019313;28;20555;-73
2022/11/06 06:15:08;;;;;;;3.53;2.30;;;7.80;92.90;;;;;;5026769;28;20431;-73
2022/11/06 06:17:35;;;;;;;6.45;2.80;;;7.80;92.90;;;;;;5027494;28;20435;-73
2022/11/06 06:20:02;;;;;;;3.90;2.40;;;7.80;92.80;;;;;;5024317;28;20592;-72
2022/11/06 06:22:29;;;;;;;4.63;2.40;;;7.80;92.80;;;;;;5023510;28;20468;-72
2022/11/06 06:24:55;;;;;;;5.53;2.50;;;7.80;92.70;;;;;;5019432;28;20452;-73
2022/11/06 06:27:26;;;;;;;4.20;2.80;;;7.80;92.80;;;;;;5027127;28;20491;-73
2022/11/06 06:29:53;;;;;;;5.50;2.72;;;7.80;92.70;;;;;;5022929;28;20485;-73
2022/11/06 06:32:20;;;;;;;3.50;2.42;;;7.80;92.60;;;;;;5021830;28;20494;-73
2022/11/06 06:34:46;;;;;;;4.63;3.00;;;7.80;92.50;;;;;;5025411;28;20506;-73
2022/11/06 06:37:13;;;;;;;3.55;2.40;;;7.80;92.50;;;;;;5020039;28;20415;-73
2022/11/06 06:39:40;;;;;;;7.45;2.60;;;7.80;92.50;;;;;;5019716;28;20543;-73
2022/11/06 06:42:06;;;;;;;4.07;2.38;;;7.80;92.60;;;;;;5024825;28;20422;-73
2022/11/06 06:44:35;;;;;;;4.25;2.33;;;7.80;92.50;;;;;;5018473;28;20440;-73
2022/11/06 06:47:01;;;;;;;7.10;3.50;;;7.80;92.60;;;;;;5024465;28;20439;-73
2022/11/06 06:49:29;;;;;;;4.10;2.50;;;7.90;92.60;;;;;;5027878;28;20491;-73
2022/11/06 06:51:56;;;;;;;5.68;2.90;;;7.90;92.60;;;;;;5025131;28;20438;-73
2022/11/06 06:54:22;;;;;;;4.40;2.45;;;7.90;92.50;;;;;;5025603;28;20506;-73
2022/11/06 06:56:49;;;;;;;4.75;2.60;;;8.00;92.50;;;;;;5023318;28;20596;-73
2022/11/06 06:59:16;;;;;;;4.47;2.58;;;8.00;92.30;;;;;;5023738;28;20450;-73
2022/11/06 07:01:44;;;;;;;4.00;2.40;;;8.00;92.30;;;;;;5023603;28;20435;-73
2022/11/06 07:04:11;;;;;;;8.10;2.67;;;8.00;92.40;;;;;;5023128;28;20922;-73
2022/11/06 07:06:37;;;;;;;4.90;2.88;;;8.00;92.40;;;;;;5025213;28;20923;-74
2022/11/06 07:09:04;;;;;;;4.10;2.60;;;8.00;92.40;;;;;;5024245;28;20438;-73
2022/11/06 07:11:31;;;;;;;3.90;2.50;;;8.00;92.50;;;;;;5024766;28;20924;-72
2022/11/06 07:13:58;;;;;;;4.63;2.40;;;8.00;92.60;;;;;;5025697;28;20426;-72
2022/11/06 07:16:26;;;;;;;4.00;3.00;;;8.00;92.50;;;;;;5025410;28;20427;-73
2022/11/06 07:18:54;;;;;;;4.40;2.50;;;8.00;92.50;;;;;;5017409;28;20480;-74
2022/11/06 07:21:21;;;;;;;4.43;2.60;;;8.10;92.40;;;;;;5025023;28;20869;-74
2022/11/06 07:23:48;;;;;;;3.47;2.30;;;8.10;92.30;;;;;;5023659;28;20478;-74
2022/11/06 07:26:15;;;;;;;4.63;2.20;;;8.10;92.30;;;;;;5024035;28;20597;-74
2022/11/06 07:28:41;;;;;;;3.35;2.50;;;8.20;92.30;;;;;;5023930;28;20426;-73
2022/11/06 07:31:11;;;;;;;4.50;2.60;;;8.20;92.30;;;;;;5023316;28;20478;-72
2022/11/06 07:33:38;;;;;;;5.40;3.00;;;8.20;92.30;;;;;;5023928;28;20511;-76
2022/11/06 07:36:09;;;;;;;4.53;2.60;;;8.30;92.70;;;;;;5023078;28;20411;-71
2022/11/06 07:38:36;;;;;;;4.78;2.75;;;8.30;92.40;;;;;;5021554;28;20445;-72
2022/11/06 07:41:05;;;;;;;4.50;2.67;;;8.30;92.30;;;;;;5023337;28;20882;-71
2022/11/06 07:43:32;;;;;;;4.47;2.90;;;8.40;92.30;;;;;;5024649;28;20475;-72
2022/11/06 07:46:00;;;;;;;6.57;2.92;;;8.40;92.40;;;;;;5026594;28;20486;-71
2022/11/06 07:48:27;;;;;;;4.88;2.40;;;8.50;92.40;;;;;;5025236;28;20526;-72
2022/11/06 07:50:54;;;;;;;4.30;3.10;;;8.50;92.20;;;;;;5026366;28;20872;-73
2022/11/06 07:53:22;;;;;;;4.57;3.00;;;8.70;92.00;;;;;;5025815;28;20510;-72
2022/11/06 07:55:50;;;;;;;3.57;2.60;;;8.90;91.80;;;;;;5028308;28;20419;-73
2022/11/06 07:58:17;;;;;;;3.83;2.47;;;9.10;91.40;;;;;;5028500;28;20885;-73
2022/11/06 08:00:46;;;;;;;4.50;2.50;;;9.30;90.50;;;;;;5031452;28;20438;-74
2022/11/06 08:03:13;;;;;;;6.15;2.63;;;9.50;90.10;;;;;;5024781;28;21009;-74
2022/11/06 08:05:40;;;;;;;5.78;2.80;;;9.80;89.40;;;;;;5025396;28;20445;-76
2022/11/06 08:08:07;;;;;;;5.00;3.00;;;9.90;87.60;;;;;;5024115;28;20443;-74
2022/11/06 08:10:39;;;;;;;3.50;2.20;;;10.10;86.90;;;;;;5025247;28;20441;-75
2022/11/06 08:13:05;;;;;;;4.50;2.50;;;10.10;86.40;;;;;;5025396;28;20897;-75
2022/11/06 08:15:32;;;;;;;3.92;2.42;;;10.00;86.40;;;;;;5029137;28;20426;-73
2022/11/06 08:17:59;;;;;;;6.45;2.47;;;9.90;87.00;;;;;;5027114;28;20494;-74
2022/11/06 08:20:26;;;;;;;4.53;2.28;;;9.90;87.60;;;;;;5026977;28;20506;-73
2022/11/06 08:22:57;;;;;;;7.97;2.80;;;10.10;86.60;;;;;;5025214;28;20439;-74
2022/11/06 08:25:24;;;;;;;3.50;2.80;;;10.20;85.90;;;;;;5027883;28;20504;-74
2022/11/06 08:27:54;;;;;;;5.25;2.45;;;10.40;85.00;;;;;;5033561;28;20430;-73
2022/11/06 08:30:21;;;;;;;5.63;2.73;;;10.60;83.90;;;;;;5054057;22;20541;-67
2022/11/06 08:32:48;;;;;;;6.83;3.00;;;10.80;83.00;;;;;;5048941;28;20428;-66
2022/11/06 08:35:14;;;;;;;4.80;2.55;;;10.90;82.70;;;;;;5049441;28;20980;-67
2022/11/06 08:37:42;;;;;;;3.92;2.60;;;11.10;81.80;;;;;;5048637;28;20431;-67
2022/11/06 08:40:10;;;;;;;6.78;2.75;;;11.30;81.10;;;;;;5046182;28;20482;-67
2022/11/06 08:42:36;;;;;;;3.90;2.35;;;11.60;79.70;;;;;;5047661;28;20443;-67
2022/11/06 08:45:06;;;;;;;4.68;2.50;;;11.70;78.70;;;;;;5048580;28;20432;-68
2022/11/06 08:47:33;;;;;;;4.20;2.70;;;11.80;78.90;;;;;;5039021;28;20523;-68
2022/11/06 08:50:00;;;;;;;4.30;2.70;;;11.90;78.20;;;;;;5048698;28;20529;-67
2022/11/06 08:52:26;;;;;;;3.60;2.30;;;12.00;77.60;;;;;;5047497;28;20429;-67
2022/11/06 08:54:53;;;;;;;4.53;2.50;;;12.00;76.90;;;;;;5049440;28;20443;-68
2022/11/06 08:57:20;;;;;;;5.32;2.72;;;12.00;76.20;;;;;;5048228;28;20443;-67
2022/11/06 08:59:47;;;;;;;3.90;2.60;;;11.90;76.70;;;;;;5046600;28;20425;-68
2022/11/06 09:02:15;;;;;;;3.70;2.30;;;11.90;76.60;;;;;;5039563;28;20436;-68
2022/11/06 09:04:42;;;;;;;4.25;2.60;;;12.00;76.60;;;;;;5041161;28;20550;-68
2022/11/06 09:07:09;;;;;;;5.45;2.60;;;12.10;76.80;;;;;;5041730;28;20429;-67
2022/11/06 09:09:35;;;;;;;5.68;2.80;;;12.20;76.30;;;;;;5046670;28;20910;-69
2022/11/06 09:12:03;;;;;;;4.15;2.28;;;12.40;75.60;;;;;;5037893;28;20547;-68
2022/11/06 09:14:29;;;;;;;4.38;2.78;;;12.80;74.10;;;;;;5043954;28;20432;-68
2022/11/06 09:16:56;;;;;;;4.10;2.40;;;13.00;72.90;;;;;;5040333;28;20475;-66
2022/11/06 09:19:24;;;;;;;4.55;2.80;;;13.20;71.40;;;;;;5050390;28;20439;-67
2022/11/06 09:21:51;;;;;;;4.40;2.30;;;13.30;70.90;;;;;;5050819;28;20909;-67
2022/11/06 09:24:18;;;;;;;5.72;2.60;;;13.30;69.50;;;;;;5049498;28;20424;-67
2022/11/06 09:26:44;;;;;;;5.03;2.20;;;13.20;69.80;;;;;;5050654;28;20413;-67
2022/11/06 09:29:11;;;;;;;5.65;2.50;;;13.10;70.50;;;;;;5049189;28;20808;-68
2022/11/06 09:31:38;;;;;;;4.50;2.40;;;13.20;69.90;;;;;;5046415;28;20425;-67
2022/11/06 09:34:05;;;;;;;4.35;2.40;;;13.00;70.00;;;;;;5050099;28;20424;-67
2022/11/06 09:36:33;;;;;;;6.13;2.80;;;12.90;70.50;;;;;;5049751;28;20444;-67
2022/11/06 09:39:00;;;;;;;3.55;2.47;;;12.70;71.50;;;;;;5050469;28;20409;-68
2022/11/06 09:41:34;;;;;;;4.22;2.50;;;12.40;72.30;;;;;;5044609;28;20428;-69
2022/11/06 09:44:13;;;;;;;5.40;3.38;;;12.20;73.50;;;;;;5048182;28;20425;-69
2022/11/06 09:46:44;;;;;;;3.47;2.70;;;12.00;74.40;;;;;;5049428;28;20421;-68
2022/11/06 09:49:19;;;;;;;5.32;2.95;;;11.90;75.30;;;;;;5047754;28;20425;-69
2022/11/06 09:51:52;;;;;;;5.85;3.25;;;11.70;75.80;;;;;;5047936;28;20429;-70
2022/11/06 09:54:23;;;;;;;6.07;3.10;;;11.70;76.40;;;;;;5048494;28;20437;-67
2022/11/06 09:56:55;;;;;;;5.27;2.90;;;11.60;77.00;;;;;;5046271;28;20435;-67
2022/11/06 09:59:22;;;;;;;4.88;3.28;;;11.50;76.90;;;;;;5049170;28;20431;-70
2022/11/06 10:01:53;;;;;;;5.22;3.20;;;11.50;77.10;;;;;;5048906;28;20433;-69
2022/11/06 10:04:38;;;;;;;5.35;3.00;;;11.50;77.40;;;;;;5048719;28;20429;-69
2022/11/06 10:07:18;;;;;;;5.13;3.00;;;11.50;77.00;;;;;;5046956;28;21063;-69
2022/11/06 10:09:45;;;;;;;5.78;2.90;;;11.70;76.20;;;;;;5047468;28;20421;-69
2022/11/06 10:12:20;;;;;;;4.28;3.00;;;12.00;75.10;;;;;;5047451;28;20446;-69
2022/11/06 10:14:58;;;;;;;3.10;2.80;;;12.40;73.20;;;;;;5050255;28;20425;-69
2022/11/06 10:17:37;;;;;;;4.55;2.72;;;12.70;71.80;;;;;;5049692;28;20451;-70
2022/11/06 10:20:12;;;;;;;3.78;2.90;;;12.90;70.10;;;;;;5047923;28;20418;-68
2022/11/06 10:22:41;;;;;;;4.65;2.78;;;13.10;68.90;;;;;;5044326;28;20931;-69
2022/11/06 10:25:19;;;;;;;4.03;2.80;;;13.10;69.10;;;;;;5047297;28;20444;-70
2022/11/06 10:28:00;;;;;;;5.10;2.95;;;12.90;70.00;;;;;;5045053;28;20575;-69
2022/11/06 10:30:33;;;;;;;3.40;2.80;;;13.10;70.60;;;;;;5045990;28;20433;-69
2022/11/06 10:33:25;;;;;;;4.78;2.75;;;13.20;69.40;;;;;;5048054;28;20432;-69
2022/11/06 10:35:58;;;;;;;6.20;3.60;;;13.10;69.50;;;;;;5047864;28;20426;-69
2022/11/06 10:38:33;;;;;;;7.60;4.90;;;12.80;70.70;;;;;;5049181;28;20410;-69
2022/11/06 10:41:01;;;;;;;5.60;4.00;;;12.60;70.80;;;;;;5048028;28;20436;-69
2022/11/06 10:43:33;;;;;;;5.47;3.67;;;12.40;71.60;;;;;;5044755;28;20472;-69
2022/11/06 10:46:06;;;;;;;5.70;3.40;;;12.20;72.80;;;;;;5044380;28;20515;-69
2022/11/06 10:48:38;;;;;;;5.03;3.40;;;12.10;73.40;;;;;;5046126;28;20555;-69
2022/11/06 10:51:20;;;;;;;3.58;3.00;;;12.00;74.20;;;;;;5047870;28;20429;-68
2022/11/06 10:54:01;;;;;;;5.20;3.08;;;11.90;74.90;;;;;;5047681;28;20937;-68
2022/11/06 10:56:39;;;;;;;5.13;3.50;;;11.90;75.20;;;;;;5047058;28;20421;-68
2022/11/06 10:59:07;;;;;;;4.28;3.30;;;11.80;75.70;;;;;;5047365;28;20421;-68
2022/11/06 11:01:34;;;;;;;4.30;3.10;;;11.80;75.80;;;;;;5049285;28;20413;-67
2022/11/06 11:04:01;;;;;;;5.68;3.45;;;11.70;75.30;;;;;;5045732;28;20428;-68
2022/11/06 11:06:28;;;;;;;3.35;2.90;;;11.60;75.90;;;;;;5044492;28;20440;-68
2022/11/06 11:08:56;;;;;;;4.95;3.08;;;11.70;76.10;;;;;;5048645;28;20444;-67
2022/11/06 11:11:24;;;;;;;5.10;2.70;;;11.80;75.70;;;;;;5048738;28;20433;-68
2022/11/06 11:14:14;;;;;;;2.83;2.50;;;11.80;75.30;;;;;;5043912;28;20429;-69
2022/11/06 11:16:44;;;;;;;3.20;2.90;;;11.80;75.10;;;;;;5048704;28;20471;-69
2022/11/06 11:19:25;;;;;;;4.82;2.92;;;11.70;75.50;;;;;;5045214;28;20962;-68
2022/11/06 11:21:54;;;;;;;5.82;3.22;;;11.70;75.30;;;;;;5047419;28;20414;-68
2022/11/06 11:24:23;;;;;;;4.60;2.60;;;11.60;76.40;;;;;;5048157;28;23349;-67
2022/11/06 11:26:52;;;;;;;4.00;3.50;;;11.60;75.30;;;;;;5046029;28;20421;-68
2022/11/06 11:29:23;;;;;;;2.80;2.47;;;11.50;75.80;;;;;;5046743;28;20421;-68
2022/11/06 11:31:52;;;;;;;4.55;2.90;;;11.50;75.80;;;;;;5046177;28;21190;-68
2022/11/06 11:34:22;;;;;;;4.22;2.67;;;11.60;76.10;;;;;;5045445;28;20428;-68
2022/11/06 11:37:01;;;;;;;6.25;3.05;;;11.60;75.90;;;;;;5047724;28;20453;-68
2022/11/06 11:39:31;;;;;;;4.75;2.80;;;11.70;75.90;;;;;;5045683;28;20510;-68
2022/11/06 11:42:17;;;;;;;4.60;3.00;;;11.70;75.60;;;;;;5044489;28;20424;-68
2022/11/06 11:44:45;;;;;;;6.10;3.35;;;11.80;74.30;;;;;;5039537;28;20431;-68
2022/11/06 11:47:21;;;;;;;3.50;2.50;;;11.90;73.90;;;;;;5033687;28;20421;-67
2022/11/06 11:49:48;;;;;;;3.50;2.80;;;11.90;73.50;;;;;;5048073;28;20428;-68
2022/11/06 11:52:20;;;;;;;4.15;2.80;;;11.90;74.30;;;;;;5036972;28;20434;-68
2022/11/06 11:54:51;;;;;;;3.03;2.70;;;12.00;73.70;;;;;;5043715;28;20457;-70
2022/11/06 11:57:20;;;;;;;4.30;2.70;;;12.10;73.80;;;;;;5040067;28;20473;-70
2022/11/06 11:59:53;;;;;;;4.00;2.80;;;12.30;72.00;;;;;;5041627;28;20423;-70
2022/11/06 12:02:26;;;;;;;4.07;2.50;;;12.30;71.80;;;;;;5029265;28;20426;-69
2022/11/06 12:04:57;;;;;;;3.95;2.50;;;12.40;71.70;;;;;;5039860;28;20508;-69
2022/11/06 12:07:28;;;;;;;3.60;2.50;;;12.50;71.20;;;;;;5047117;28;20426;-70
2022/11/06 12:09:55;;;;;;;4.25;2.60;;;12.60;70.80;;;;;;5040909;28;20423;-69
2022/11/06 12:12:24;;;;;;;4.63;2.38;;;12.80;69.30;;;;;;5026947;28;20431;-69
2022/11/06 12:15:19;;;;;;;3.03;2.40;;;13.10;68.90;;;;;;5038775;28;20427;-70
2022/11/06 12:17:52;;;;;;;4.10;2.20;;;13.90;66.10;;;;;;5036240;28;20414;-69
2022/11/06 12:20:24;;;;;;;3.33;2.08;;;14.10;64.30;;;;;;5034147;28;20425;-67
2022/11/06 12:22:53;;;;;;;3.58;2.30;;;14.00;63.60;;;;;;5042974;28;20417;-68
2022/11/06 12:25:24;;;;;;;2.50;2.00;;;13.80;64.00;;;;;;5042561;28;20429;-69
2022/11/06 12:27:54;;;;;;;3.58;2.10;;;13.60;64.70;;;;;;5044481;28;20433;-70
2022/11/06 12:30:23;;;;;;;3.20;1.90;;;13.40;64.60;;;;;;5041125;28;20429;-67
2022/11/06 12:33:10;;;;;;;2.28;1.60;;;13.50;65.00;;;;;;5039898;28;20429;-69
2022/11/06 12:35:41;;;;;;;3.70;2.00;;;13.50;64.60;;;;;;5034659;28;20434;-68
2022/11/06 12:38:17;;;;;;;3.80;2.10;;;13.70;63.30;;;;;;5045799;28;21429;-69
2022/11/06 12:40:50;;;;;;;4.03;2.00;;;13.80;62.40;;;;;;5045888;28;20945;-68
2022/11/06 12:43:23;;;;;;;2.63;1.97;;;13.70;62.30;;;;;;5044548;28;20440;-69
2022/11/06 12:46:02;;;;;;;2.95;2.00;;;13.60;63.00;;;;;;5039915;28;20437;-69
2022/11/06 12:49:03;;;;;;;4.13;2.10;;;13.60;62.80;;;;;;5042867;28;20430;-66
2022/11/06 12:51:41;;;;;;;3.40;2.10;;;13.80;62.40;;;;;;5035598;28;20848;-66
2022/11/06 12:54:23;;;;;;;2.35;2.10;;;13.70;62.20;;;;;;5044448;28;20436;-68
2022/11/06 12:56:59;;;;;;;3.72;2.35;;;13.50;62.20;;;;;;5039055;28;20460;-69
2022/11/06 12:59:39;;;;;;;2.85;1.90;;;13.40;62.40;;;;;;5042507;28;20435;-70
2022/11/06 13:02:24;;;;;;;2.85;1.90;;;13.20;63.30;;;;;;5041006;28;20435;-70
2022/11/06 13:04:56;;;;;;;2.42;1.90;;;13.20;64.30;;;;;;5043573;28;20425;-70
2022/11/06 13:07:34;;;;;;;4.40;1.80;;;13.20;63.90;;;;;;5049698;28;20444;-69
2022/11/06 13:10:15;;;;;;;2.35;1.70;;;13.10;64.20;;;;;;5046493;28;20433;-67
2022/11/06 13:12:51;;;;;;;2.25;1.65;;;13.00;64.90;;;;;;5040690;28;20429;-69
2022/11/06 13:15:25;;;;;;;2.53;2.00;;;12.90;65.20;;;;;;5036328;28;20467;-68
2022/11/06 13:17:59;;;;;;;2.00;1.50;;;12.90;65.10;;;;;;5041414;28;20429;-70
2022/11/06 13:20:32;;;;;;;3.28;1.75;;;12.90;64.90;;;;;;5042173;28;20946;-69
2022/11/06 13:23:06;;;;;;;2.67;1.65;;;12.90;64.70;;;;;;5043494;28;20443;-70